sensor_id;sensor_type;location;lat;lon;timestamp;pressure;altitude;pressure_sealevel;temperature;humidity
68793;BME280;55778;54.346;10.210;2023-04-22T00:02:24;101076.97;;;6.35;86.08
68793;BME280;55778;54.346;10.210;2023-04-22T00:04:51;101084.97;;;6.37;86.08
68793;BME280;55778;54.346;10.210;2023-04-22T00:07:16;101080.44;;;6.25;86.01
68793;BME280;55778;54.346;10.210;2023-04-22T00:09:42;101076.34;;;6.19;86.40
68793;BME280;55778;54.346;10.210;2023-04-22T00:12:08;101071.38;;;6.13;86.21
68793;BME280;55778;54.346;10.210;2023-04-22T00:14:35;101065.97;;;6.13;86.52
68793;BME280;55778;54.346;10.210;2023-04-22T00:17:01;101058.47;;;6.29;85.13
68793;BME280;55778;54.346;10.210;2023-04-22T00:19:26;101053.94;;;6.30;84.58
68793;BME280;55778;54.346;10.210;2023-04-22T00:21:52;101050.66;;;6.37;83.95
68793;BME280;55778;54.346;10.210;2023-04-22T00:24:17;101047.63;;;6.42;83.34
68793;BME280;55778;54.346;10.210;2023-04-22T00:26:43;101044.91;;;6.42;83.32
68793;BME280;55778;54.346;10.210;2023-04-22T00:29:08;101044.25;;;6.51;82.83
68793;BME280;55778;54.346;10.210;2023-04-22T00:31:33;101038.72;;;6.52;82.66
68793;BME280;55778;54.346;10.210;2023-04-22T00:33:59;101044.25;;;6.51;82.72
68793;BME280;55778;54.346;10.210;2023-04-22T00:36:27;101033.19;;;6.54;82.48
68793;BME280;55778;54.346;10.210;2023-04-22T00:38:53;101029.78;;;6.63;82.30
68793;BME280;55778;54.346;10.210;2023-04-22T00:41:18;101022.91;;;6.46;82.71
68793;BME280;55778;54.346;10.210;2023-04-22T00:43:45;101016.84;;;6.43;83.18
68793;BME280;55778;54.346;10.210;2023-04-22T00:46:10;101020.97;;;6.48;83.00
68793;BME280;55778;54.346;10.210;2023-04-22T00:48:36;101012.88;;;6.36;83.23
68793;BME280;55778;54.346;10.210;2023-04-22T00:51:02;101010.72;;;6.41;83.27
68793;BME280;55778;54.346;10.210;2023-04-22T00:53:28;101016.13;;;6.41;83.41
68793;BME280;55778;54.346;10.210;2023-04-22T00:55:53;101010.94;;;6.38;83.47
68793;BME280;55778;54.346;10.210;2023-04-22T00:58:20;101015.78;;;6.45;83.30
68793;BME280;55778;54.346;10.210;2023-04-22T01:00:47;101008.00;;;6.41;83.13
68793;BME280;55778;54.346;10.210;2023-04-22T01:03:13;101004.44;;;6.40;83.52
68793;BME280;55778;54.346;10.210;2023-04-22T01:05:39;100998.66;;;6.45;83.63
68793;BME280;55778;54.346;10.210;2023-04-22T01:08:05;100992.13;;;6.60;83.19
68793;BME280;55778;54.346;10.210;2023-04-22T01:10:30;100988.66;;;6.58;83.32
68793;BME280;55778;54.346;10.210;2023-04-22T01:12:56;100989.69;;;6.68;83.26
68793;BME280;55778;54.346;10.210;2023-04-22T01:15:21;100989.69;;;6.68;83.23
68793;BME280;55778;54.346;10.210;2023-04-22T01:17:47;100990.31;;;6.71;83.38
68793;BME280;55778;54.346;10.210;2023-04-22T01:20:12;100989.16;;;6.86;82.94
68793;BME280;55778;54.346;10.210;2023-04-22T01:22:42;100989.09;;;6.75;83.07
68793;BME280;55778;54.346;10.210;2023-04-22T01:25:09;100982.44;;;6.68;83.39
68793;BME280;55778;54.346;10.210;2023-04-22T01:27:36;100979.19;;;6.63;83.78
68793;BME280;55778;54.346;10.210;2023-04-22T01:30:02;100977.78;;;6.47;84.49
68793;BME280;55778;54.346;10.210;2023-04-22T01:32:28;100972.50;;;6.33;85.41
68793;BME280;55778;54.346;10.210;2023-04-22T01:34:55;100979.66;;;6.34;85.63
68793;BME280;55778;54.346;10.210;2023-04-22T01:37:21;100975.44;;;6.30;85.50
68793;BME280;55778;54.346;10.210;2023-04-22T01:39:46;100970.53;;;6.11;86.24
68793;BME280;55778;54.346;10.210;2023-04-22T01:42:12;100971.00;;;5.92;87.17
68793;BME280;55778;54.346;10.210;2023-04-22T01:44:38;100971.34;;;5.88;87.75
68793;BME280;55778;54.346;10.210;2023-04-22T01:47:03;100969.06;;;5.82;87.84
68793;BME280;55778;54.346;10.210;2023-04-22T01:49:29;100956.19;;;5.73;88.44
68793;BME280;55778;54.346;10.210;2023-04-22T01:51:56;100954.03;;;5.65;88.99
68793;BME280;55778;54.346;10.210;2023-04-22T01:54:22;100955.88;;;5.52;90.11
68793;BME280;55778;54.346;10.210;2023-04-22T01:56:54;100956.09;;;5.49;90.14
68793;BME280;55778;54.346;10.210;2023-04-22T01:59:20;100958.72;;;5.38;90.79
68793;BME280;55778;54.346;10.210;2023-04-22T02:01:46;100955.69;;;5.30;91.08
68793;BME280;55778;54.346;10.210;2023-04-22T02:04:11;100954.06;;;5.28;91.15
68793;BME280;55778;54.346;10.210;2023-04-22T02:06:36;100955.91;;;5.27;91.55
68793;BME280;55778;54.346;10.210;2023-04-22T02:09:02;100950.81;;;5.23;91.76
68793;BME280;55778;54.346;10.210;2023-04-22T02:11:28;100949.31;;;5.19;92.50
68793;BME280;55778;54.346;10.210;2023-04-22T02:13:54;100951.91;;;5.20;92.48
68793;BME280;55778;54.346;10.210;2023-04-22T02:16:22;100940.88;;;5.23;92.24
68793;BME280;55778;54.346;10.210;2023-04-22T02:18:47;100937.09;;;5.26;92.35
68793;BME280;55778;54.346;10.210;2023-04-22T02:21:13;100938.06;;;5.25;92.80
68793;BME280;55778;54.346;10.210;2023-04-22T02:23:39;100938.06;;;5.25;92.71
68793;BME280;55778;54.346;10.210;2023-04-22T02:26:06;100930.19;;;5.22;92.66
68793;BME280;55778;54.346;10.210;2023-04-22T02:28:31;100941.22;;;5.19;93.06
68793;BME280;55778;54.346;10.210;2023-04-22T02:30:56;100924.97;;;5.31;92.40
68793;BME280;55778;54.346;10.210;2023-04-22T02:33:22;100928.88;;;5.27;92.78
68793;BME280;55778;54.346;10.210;2023-04-22T02:35:47;100917.53;;;5.22;92.97
68793;BME280;55778;54.346;10.210;2023-04-22T02:38:13;100919.69;;;5.30;92.96
68793;BME280;55778;54.346;10.210;2023-04-22T02:40:38;100917.97;;;5.29;92.57
68793;BME280;55778;54.346;10.210;2023-04-22T02:43:04;100918.06;;;5.27;92.56
68793;BME280;55778;54.346;10.210;2023-04-22T02:45:29;100910.41;;;5.21;93.34
68793;BME280;55778;54.346;10.210;2023-04-22T02:47:55;100914.09;;;5.20;93.46
68793;BME280;55778;54.346;10.210;2023-04-22T02:50:20;100916.13;;;5.17;93.36
68793;BME280;55778;54.346;10.210;2023-04-22T02:52:45;100908.25;;;5.26;93.64
68793;BME280;55778;54.346;10.210;2023-04-22T02:55:11;100900.03;;;5.28;93.33
68793;BME280;55778;54.346;10.210;2023-04-22T02:57:36;100899.81;;;5.18;93.69
68793;BME280;55778;54.346;10.210;2023-04-22T03:00:02;100898.31;;;5.14;93.99
68793;BME280;55778;54.346;10.210;2023-04-22T03:02:28;100892.16;;;5.12;93.96
68793;BME280;55778;54.346;10.210;2023-04-22T03:04:53;100888.72;;;5.10;94.09
68793;BME280;55778;54.346;10.210;2023-04-22T03:07:19;100889.66;;;5.09;94.43
68793;BME280;55778;54.346;10.210;2023-04-22T03:09:44;100888.16;;;5.05;94.61
68793;BME280;55778;54.346;10.210;2023-04-22T03:12:10;100886.84;;;5.11;94.70
68793;BME280;55778;54.346;10.210;2023-04-22T03:14:35;100880.81;;;5.07;94.45
68793;BME280;55778;54.346;10.210;2023-04-22T03:17:00;100878.66;;;5.00;94.60
68793;BME280;55778;54.346;10.210;2023-04-22T03:19:26;100877.66;;;5.01;95.10
68793;BME280;55778;54.346;10.210;2023-04-22T03:21:51;100873.47;;;4.97;95.62
68793;BME280;55778;54.346;10.210;2023-04-22T03:24:16;100874.53;;;4.94;95.69
68793;BME280;55778;54.346;10.210;2023-04-22T03:26:42;100865.59;;;4.94;96.18
68793;BME280;55778;54.346;10.210;2023-04-22T03:29:08;100864.38;;;4.98;95.91
68793;BME280;55778;54.346;10.210;2023-04-22T03:31:33;100860.06;;;4.95;95.90
68793;BME280;55778;54.346;10.210;2023-04-22T03:33:58;100856.72;;;4.92;96.18
68793;BME280;55778;54.346;10.210;2023-04-22T03:36:24;100861.13;;;4.93;96.36
68793;BME280;55778;54.346;10.210;2023-04-22T03:38:51;100860.06;;;4.95;96.50
68793;BME280;55778;54.346;10.210;2023-04-22T03:41:16;100856.72;;;4.92;96.72
68793;BME280;55778;54.346;10.210;2023-04-22T03:43:42;100853.03;;;4.93;96.82
68793;BME280;55778;54.346;10.210;2023-04-22T03:46:07;100837.16;;;4.88;96.78
68793;BME280;55778;54.346;10.210;2023-04-22T03:48:35;100844.31;;;4.89;97.22
68793;BME280;55778;54.346;10.210;2023-04-22T03:51:01;100841.38;;;4.80;97.14
68793;BME280;55778;54.346;10.210;2023-04-22T03:53:27;100846.47;;;4.72;97.65
68793;BME280;55778;54.346;10.210;2023-04-22T03:55:53;100835.34;;;4.76;98.12
68793;BME280;55778;54.346;10.210;2023-04-22T03:58:18;100831.31;;;4.69;98.43
68793;BME280;55778;54.346;10.210;2023-04-22T04:00:44;100835.66;;;4.72;98.40
68793;BME280;55778;54.346;10.210;2023-04-22T04:03:09;100830.25;;;4.84;97.94
68793;BME280;55778;54.346;10.210;2023-04-22T04:05:35;100822.69;;;5.02;97.15
68793;BME280;55778;54.346;10.210;2023-04-22T04:08:00;100815.44;;;5.02;96.48
68793;BME280;55778;54.346;10.210;2023-04-22T04:10:26;100805.59;;;5.14;96.25
68793;BME280;55778;54.346;10.210;2023-04-22T04:12:51;100803.44;;;5.19;96.19
68793;BME280;55778;54.346;10.210;2023-04-22T04:15:17;100798.66;;;5.35;96.02
68793;BME280;55778;54.346;10.210;2023-04-22T04:17:46;100797.53;;;5.50;95.49
68793;BME280;55778;54.346;10.210;2023-04-22T04:20:12;100796.41;;;5.65;94.61
68793;BME280;55778;54.346;10.210;2023-04-22T04:22:38;100803.47;;;5.78;93.52
68793;BME280;55778;54.346;10.210;2023-04-22T04:25:04;100794.31;;;5.68;93.60
68793;BME280;55778;54.346;10.210;2023-04-22T04:27:29;100802.31;;;5.82;92.66
68793;BME280;55778;54.346;10.210;2023-04-22T04:29:54;100792.25;;;5.84;92.43
68793;BME280;55778;54.346;10.210;2023-04-22T04:32:20;100788.78;;;5.82;92.02
68793;BME280;55778;54.346;10.210;2023-04-22T04:34:46;100778.16;;;5.79;92.49
68793;BME280;55778;54.346;10.210;2023-04-22T04:37:11;100776.41;;;5.91;92.25
68793;BME280;55778;54.346;10.210;2023-04-22T04:39:37;100781.63;;;6.05;91.88
68793;BME280;55778;54.346;10.210;2023-04-22T04:42:02;100770.50;;;6.21;91.18
68793;BME280;55778;54.346;10.210;2023-04-22T04:44:28;100769.19;;;6.37;90.51
68793;BME280;55778;54.346;10.210;2023-04-22T04:46:56;100772.31;;;6.55;89.26
68793;BME280;55778;54.346;10.210;2023-04-22T04:49:22;100766.44;;;6.83;87.42
68793;BME280;55778;54.346;10.210;2023-04-22T04:51:47;100776.31;;;7.06;85.74
68793;BME280;55778;54.346;10.210;2023-04-22T04:54:13;100773.22;;;7.32;84.40
68793;BME280;55778;54.346;10.210;2023-04-22T04:56:39;100774.50;;;7.60;82.68
68793;BME280;55778;54.346;10.210;2023-04-22T04:59:04;100771.00;;;7.80;82.04
68793;BME280;55778;54.346;10.210;2023-04-22T05:01:30;100780.09;;;7.90;81.82
68793;BME280;55778;54.346;10.210;2023-04-22T05:03:55;100774.91;;;7.98;81.16
68793;BME280;55778;54.346;10.210;2023-04-22T05:06:23;100775.59;;;8.11;80.46
68793;BME280;55778;54.346;10.210;2023-04-22T05:08:48;100773.19;;;8.17;80.06
68793;BME280;55778;54.346;10.210;2023-04-22T05:11:14;100779.09;;;8.34;79.37
68793;BME280;55778;54.346;10.210;2023-04-22T05:13:39;100775.72;;;8.41;78.90
68793;BME280;55778;54.346;10.210;2023-04-22T05:16:05;100769.88;;;8.46;78.77
68793;BME280;55778;54.346;10.210;2023-04-22T05:18:30;100771.53;;;8.58;77.99
68793;BME280;55778;54.346;10.210;2023-04-22T05:20:55;100767.75;;;8.70;77.53
68793;BME280;55778;54.346;10.210;2023-04-22T05:23:23;100766.13;;;8.88;76.41
68793;BME280;55778;54.346;10.210;2023-04-22T05:25:49;100772.41;;;9.09;74.96
68793;BME280;55778;54.346;10.210;2023-04-22T05:28:14;100766.22;;;9.37;73.16
68793;BME280;55778;54.346;10.210;2023-04-22T05:30:39;100770.53;;;9.49;73.00
68793;BME280;55778;54.346;10.210;2023-04-22T05:33:05;100776.72;;;9.60;72.70
68793;BME280;55778;54.346;10.210;2023-04-22T05:35:32;100779.63;;;9.78;71.49
68793;BME280;55778;54.346;10.210;2023-04-22T05:37:58;100781.38;;;9.88;71.53
68793;BME280;55778;54.346;10.210;2023-04-22T05:40:23;100777.97;;;10.05;69.94
68793;BME280;55778;54.346;10.210;2023-04-22T05:42:49;100772.13;;;10.20;69.47
68793;BME280;55778;54.346;10.210;2023-04-22T05:45:14;100776.69;;;10.29;69.81
68793;BME280;55778;54.346;10.210;2023-04-22T05:47:42;100766.38;;;10.32;69.92
68793;BME280;55778;54.346;10.210;2023-04-22T05:50:08;100768.50;;;10.48;68.12
68793;BME280;55778;54.346;10.210;2023-04-22T05:52:34;100767.78;;;10.65;68.73
68793;BME280;55778;54.346;10.210;2023-04-22T05:54:59;100765.59;;;10.78;66.26
68793;BME280;55778;54.346;10.210;2023-04-22T05:57:24;100759.28;;;10.87;65.83
68793;BME280;55778;54.346;10.210;2023-04-22T05:59:50;100761.41;;;10.93;65.65
68793;BME280;55778;54.346;10.210;2023-04-22T06:02:15;100756.78;;;11.03;66.00
68793;BME280;55778;54.346;10.210;2023-04-22T06:04:41;100756.75;;;11.12;65.48
68793;BME280;55778;54.346;10.210;2023-04-22T06:07:06;100747.97;;;11.18;65.14
68793;BME280;55778;54.346;10.210;2023-04-22T06:09:34;100750.75;;;11.36;64.21
68793;BME280;55778;54.346;10.210;2023-04-22T06:12:00;100745.53;;;11.42;64.50
68793;BME280;55778;54.346;10.210;2023-04-22T06:14:26;100742.19;;;11.48;63.93
68793;BME280;55778;54.346;10.210;2023-04-22T06:16:51;100750.03;;;11.61;63.45
68793;BME280;55778;54.346;10.210;2023-04-22T06:19:18;100751.16;;;11.68;62.55
68793;BME280;55778;54.346;10.210;2023-04-22T06:21:43;100739.56;;;11.66;62.57
68793;BME280;55778;54.346;10.210;2023-04-22T06:24:09;100733.00;;;11.76;63.45
68793;BME280;55778;54.346;10.210;2023-04-22T06:26:37;100729.03;;;11.88;62.35
68793;BME280;55778;54.346;10.210;2023-04-22T06:29:03;100732.47;;;12.08;61.70
68793;BME280;55778;54.346;10.210;2023-04-22T06:31:32;100732.00;;;12.30;61.78
68793;BME280;55778;54.346;10.210;2023-04-22T06:33:57;100742.13;;;12.55;60.09
68793;BME280;55778;54.346;10.210;2023-04-22T06:36:24;100730.22;;;12.64;59.30
68793;BME280;55778;54.346;10.210;2023-04-22T06:38:50;100733.09;;;12.80;59.16
68793;BME280;55778;54.346;10.210;2023-04-22T06:41:16;100726.63;;;13.07;58.34
68793;BME280;55778;54.346;10.210;2023-04-22T06:43:41;100714.88;;;13.14;57.57
68793;BME280;55778;54.346;10.210;2023-04-22T06:46:07;100719.50;;;13.22;56.96
68793;BME280;55778;54.346;10.210;2023-04-22T06:48:32;100718.78;;;13.53;56.46
68793;BME280;55778;54.346;10.210;2023-04-22T06:50:58;100709.13;;;13.75;54.89
68793;BME280;55778;54.346;10.210;2023-04-22T06:53:23;100704.50;;;13.83;54.48
68793;BME280;55778;54.346;10.210;2023-04-22T06:55:48;100710.00;;;13.99;54.70
68793;BME280;55778;54.346;10.210;2023-04-22T06:58:14;100711.22;;;14.13;54.00
68793;BME280;55778;54.346;10.210;2023-04-22T07:00:39;100714.19;;;14.36;54.25
68793;BME280;55778;54.346;10.210;2023-04-22T07:03:05;100702.53;;;14.34;53.18
68793;BME280;55778;54.346;10.210;2023-04-22T07:05:30;100711.06;;;14.15;53.97
68793;BME280;55778;54.346;10.210;2023-04-22T07:07:56;100710.38;;;14.04;53.89
68793;BME280;55778;54.346;10.210;2023-04-22T07:10:21;100708.13;;;14.08;53.77
68793;BME280;55778;54.346;10.210;2023-04-22T07:12:47;100696.19;;;14.49;53.28
68793;BME280;55778;54.346;10.210;2023-04-22T07:15:12;100701.31;;;14.68;52.92
68793;BME280;55778;54.346;10.210;2023-04-22T07:17:38;100689.44;;;14.92;52.50
68793;BME280;55778;54.346;10.210;2023-04-22T07:20:04;100676.88;;;15.05;52.46
68793;BME280;55778;54.346;10.210;2023-04-22T07:22:29;100682.03;;;15.00;51.55
68793;BME280;55778;54.346;10.210;2023-04-22T07:24:55;100674.97;;;15.14;51.00
68793;BME280;55778;54.346;10.210;2023-04-22T07:27:20;100674.03;;;15.37;52.16
68793;BME280;55778;54.346;10.210;2023-04-22T07:29:46;100668.28;;;15.55;50.83
68793;BME280;55778;54.346;10.210;2023-04-22T07:32:11;100663.06;;;15.68;49.73
68793;BME280;55778;54.346;10.210;2023-04-22T07:34:37;100665.03;;;15.51;50.36
68793;BME280;55778;54.346;10.210;2023-04-22T07:37:03;100669.09;;;15.63;49.68
68793;BME280;55778;54.346;10.210;2023-04-22T07:39:31;100669.53;;;15.75;50.17
68793;BME280;55778;54.346;10.210;2023-04-22T07:41:56;100664.63;;;15.93;50.14
68793;BME280;55778;54.346;10.210;2023-04-22T07:44:22;100676.59;;;16.00;49.59
68793;BME280;55778;54.346;10.210;2023-04-22T07:46:48;100669.06;;;15.94;49.12
68793;BME280;55778;54.346;10.210;2023-04-22T07:49:14;100680.28;;;15.84;49.29
68793;BME280;55778;54.346;10.210;2023-04-22T07:51:41;100672.03;;;15.84;49.77
68793;BME280;55778;54.346;10.210;2023-04-22T07:54:06;100669.03;;;16.02;50.27
68793;BME280;55778;54.346;10.210;2023-04-22T07:56:32;100674.00;;;15.98;49.73
68793;BME280;55778;54.346;10.210;2023-04-22T07:58:58;100657.84;;;16.04;50.69
68793;BME280;55778;54.346;10.210;2023-04-22T08:01:23;100675.25;;;15.96;49.42
68793;BME280;55778;54.346;10.210;2023-04-22T08:03:48;100661.31;;;15.98;49.17
68793;BME280;55778;54.346;10.210;2023-04-22T08:06:14;100667.00;;;15.96;50.21
68793;BME280;55778;54.346;10.210;2023-04-22T08:08:39;100668.34;;;16.00;50.34
68793;BME280;55778;54.346;10.210;2023-04-22T08:11:05;100658.84;;;16.25;49.59
68793;BME280;55778;54.346;10.210;2023-04-22T08:13:31;100662.38;;;16.56;48.14
68793;BME280;55778;54.346;10.210;2023-04-22T08:15:56;100653.81;;;16.51;47.74
68793;BME280;55778;54.346;10.210;2023-04-22T08:18:21;100646.44;;;16.52;48.43
68793;BME280;55778;54.346;10.210;2023-04-22T08:20:47;100640.31;;;16.93;48.60
68793;BME280;55778;54.346;10.210;2023-04-22T08:23:12;100639.19;;;17.02;47.44
68793;BME280;55778;54.346;10.210;2023-04-22T08:25:38;100644.84;;;17.30;47.86
68793;BME280;55778;54.346;10.210;2023-04-22T08:28:03;100633.91;;;17.51;47.56
68793;BME280;55778;54.346;10.210;2023-04-22T08:30:29;100645.53;;;17.32;46.45
68793;BME280;55778;54.346;10.210;2023-04-22T08:32:54;100638.66;;;17.42;46.66
68793;BME280;55778;54.346;10.210;2023-04-22T08:35:20;100632.63;;;17.32;46.12
68793;BME280;55778;54.346;10.210;2023-04-22T08:37:45;100632.81;;;17.02;47.22
68793;BME280;55778;54.346;10.210;2023-04-22T08:40:10;100635.38;;;17.18;47.04
68793;BME280;55778;54.346;10.210;2023-04-22T08:42:36;100630.50;;;17.34;47.00
68793;BME280;55778;54.346;10.210;2023-04-22T08:45:03;100626.78;;;17.42;45.95
68793;BME280;55778;54.346;10.210;2023-04-22T08:47:30;100622.31;;;17.55;46.24
68793;BME280;55778;54.346;10.210;2023-04-22T08:50:01;100624.72;;;17.44;46.50
68793;BME280;55778;54.346;10.210;2023-04-22T08:52:27;100627.72;;;17.63;45.10
68793;BME280;55778;54.346;10.210;2023-04-22T08:54:53;100628.38;;;17.65;45.58
68793;BME280;55778;54.346;10.210;2023-04-22T08:57:19;100619.72;;;17.89;45.47
68793;BME280;55778;54.346;10.210;2023-04-22T08:59:45;100607.84;;;18.10;45.65
68793;BME280;55778;54.346;10.210;2023-04-22T09:02:21;100605.72;;;18.33;44.49
68793;BME280;55778;54.346;10.210;2023-04-22T09:04:49;100612.75;;;18.36;44.29
68793;BME280;55778;54.346;10.210;2023-04-22T09:07:22;100603.19;;;18.59;44.97
68793;BME280;55778;54.346;10.210;2023-04-22T09:09:48;100600.31;;;19.01;43.29
68793;BME280;55778;54.346;10.210;2023-04-22T09:12:14;100594.72;;;18.95;43.48
68793;BME280;55778;54.346;10.210;2023-04-22T09:14:42;100591.63;;;18.77;45.08
68793;BME280;55778;54.346;10.210;2023-04-22T09:17:07;100600.16;;;19.16;44.25
68793;BME280;55778;54.346;10.210;2023-04-22T09:19:33;100589.72;;;19.11;43.28
68793;BME280;55778;54.346;10.210;2023-04-22T09:21:58;100587.63;;;19.20;43.23
68793;BME280;55778;54.346;10.210;2023-04-22T09:24:24;100579.28;;;19.54;42.93
68793;BME280;55778;54.346;10.210;2023-04-22T09:26:49;100571.28;;;19.65;42.49
68793;BME280;55778;54.346;10.210;2023-04-22T09:29:15;100572.38;;;19.97;42.78
68793;BME280;55778;54.346;10.210;2023-04-22T09:31:41;100582.44;;;20.31;42.74
68793;BME280;55778;54.346;10.210;2023-04-22T09:34:12;100577.09;;;20.62;42.38
68793;BME280;55778;54.346;10.210;2023-04-22T09:36:37;100578.59;;;20.45;41.29
68793;BME280;55778;54.346;10.210;2023-04-22T09:39:05;100582.59;;;20.10;42.41
68793;BME280;55778;54.346;10.210;2023-04-22T09:41:35;100576.19;;;19.83;43.00
68793;BME280;55778;54.346;10.210;2023-04-22T09:44:02;100569.88;;;20.15;41.08
68793;BME280;55778;54.346;10.210;2023-04-22T09:46:29;100564.47;;;19.81;41.64
68793;BME280;55778;54.346;10.210;2023-04-22T09:48:56;100573.94;;;19.33;42.06
68793;BME280;55778;54.346;10.210;2023-04-22T09:51:22;100578.25;;;19.61;42.24
68793;BME280;55778;54.346;10.210;2023-04-22T09:54:04;100580.47;;;20.05;42.60
68793;BME280;55778;54.346;10.210;2023-04-22T09:56:41;100579.75;;;19.17;42.91
68793;BME280;55778;54.346;10.210;2023-04-22T09:59:07;100581.78;;;19.29;43.09
68793;BME280;55778;54.346;10.210;2023-04-22T10:01:37;100577.22;;;19.82;42.98
68793;BME280;55778;54.346;10.210;2023-04-22T10:04:05;100581.91;;;19.68;42.92
68793;BME280;55778;54.346;10.210;2023-04-22T10:06:31;100577.75;;;20.25;42.03
68793;BME280;55778;54.346;10.210;2023-04-22T10:08:58;100569.00;;;20.60;41.92
68793;BME280;55778;54.346;10.210;2023-04-22T10:11:23;100558.50;;;20.95;41.86
68793;BME280;55778;54.346;10.210;2023-04-22T10:13:49;100554.84;;;21.01;40.77
68793;BME280;55778;54.346;10.210;2023-04-22T10:16:14;100558.53;;;20.62;41.47
68793;BME280;55778;54.346;10.210;2023-04-22T10:18:41;100563.63;;;20.91;40.17
68793;BME280;55778;54.346;10.210;2023-04-22T10:21:07;100538.09;;;21.33;39.95
68793;BME280;55778;54.346;10.210;2023-04-22T10:23:33;100533.25;;;21.22;39.89
68793;BME280;55778;54.346;10.210;2023-04-22T10:25:58;100536.72;;;21.55;38.54
68793;BME280;55778;54.346;10.210;2023-04-22T10:28:27;100531.16;;;21.18;39.79
68793;BME280;55778;54.346;10.210;2023-04-22T10:30:53;100528.38;;;21.24;40.26
68793;BME280;55778;54.346;10.210;2023-04-22T10:38:40;100516.56;;;21.29;40.83
68793;BME280;55778;54.346;10.210;2023-04-22T10:41:06;100523.63;;;21.31;40.05
68793;BME280;55778;54.346;10.210;2023-04-22T10:46:06;100519.28;;;22.35;38.32
68793;BME280;55778;54.346;10.210;2023-04-22T10:48:48;100513.72;;;22.35;38.49
68793;BME280;55778;54.346;10.210;2023-04-22T10:51:37;100510.06;;;21.86;37.22
68793;BME280;55778;54.346;10.210;2023-04-22T10:54:03;100504.13;;;21.44;39.21
68793;BME280;55778;54.346;10.210;2023-04-22T10:56:28;100501.06;;;21.59;38.87
68793;BME280;55778;54.346;10.210;2023-04-22T10:58:57;100507.75;;;21.83;37.32
68793;BME280;55778;54.346;10.210;2023-04-22T11:01:22;100494.81;;;22.01;37.53
68793;BME280;55778;54.346;10.210;2023-04-22T11:03:51;100504.16;;;22.07;37.56
68793;BME280;55778;54.346;10.210;2023-04-22T11:06:19;100497.59;;;22.01;37.64
68793;BME280;55778;54.346;10.210;2023-04-22T11:08:50;100485.41;;;21.71;37.50
68793;BME280;55778;54.346;10.210;2023-04-22T11:11:31;100480.06;;;21.38;38.23
68793;BME280;55778;54.346;10.210;2023-04-22T11:13:57;100483.78;;;21.26;39.02
68793;BME280;55778;54.346;10.210;2023-04-22T11:16:23;100484.09;;;21.05;38.99
68793;BME280;55778;54.346;10.210;2023-04-22T11:18:48;100482.28;;;21.23;39.52
68793;BME280;55778;54.346;10.210;2023-04-22T11:21:14;100470.59;;;21.21;39.19
68793;BME280;55778;54.346;10.210;2023-04-22T11:23:49;100473.84;;;21.81;38.51
68793;BME280;55778;54.346;10.210;2023-04-22T11:26:16;100477.19;;;21.89;38.03
68793;BME280;55778;54.346;10.210;2023-04-22T11:28:45;100466.13;;;21.83;37.91
68793;BME280;55778;54.346;10.210;2023-04-22T11:31:11;100461.78;;;22.18;37.72
68793;BME280;55778;54.346;10.210;2023-04-22T11:33:36;100466.66;;;22.22;38.04
68793;BME280;55778;54.346;10.210;2023-04-22T11:36:09;100459.59;;;22.44;37.07
68793;BME280;55778;54.346;10.210;2023-04-22T11:38:35;100450.41;;;22.44;37.26
68793;BME280;55778;54.346;10.210;2023-04-22T11:41:01;100455.00;;;22.32;37.52
68793;BME280;55778;54.346;10.210;2023-04-22T11:43:28;100447.41;;;22.03;37.66
68793;BME280;55778;54.346;10.210;2023-04-22T11:45:54;100447.16;;;22.47;37.65
68793;BME280;55778;54.346;10.210;2023-04-22T11:48:20;100444.66;;;22.63;36.54
68793;BME280;55778;54.346;10.210;2023-04-22T11:50:45;100435.69;;;22.61;37.38
68793;BME280;55778;54.346;10.210;2023-04-22T11:55:39;100441.84;;;22.45;37.78
68793;BME280;55778;54.346;10.210;2023-04-22T11:58:15;100444.31;;;22.35;37.22
68793;BME280;55778;54.346;10.210;2023-04-22T12:03:24;100433.31;;;22.83;37.52
68793;BME280;55778;54.346;10.210;2023-04-22T12:05:58;100436.47;;;23.34;36.01
68793;BME280;55778;54.346;10.210;2023-04-22T12:08:29;100433.66;;;23.64;36.74
68793;BME280;55778;54.346;10.210;2023-04-22T12:10:57;100433.88;;;23.03;36.43
68793;BME280;55778;54.346;10.210;2023-04-22T12:13:29;100435.69;;;23.57;36.28
68793;BME280;55778;54.346;10.210;2023-04-22T12:16:01;100427.09;;;23.58;35.53
68793;BME280;55778;54.346;10.210;2023-04-22T12:18:36;100432.75;;;23.40;35.01
68793;BME280;55778;54.346;10.210;2023-04-22T12:21:09;100429.09;;;22.38;36.57
68793;BME280;55778;54.346;10.210;2023-04-22T12:26:10;100412.69;;;22.90;36.00
68793;BME280;55778;54.346;10.210;2023-04-22T12:28:36;100421.53;;;23.58;35.15
68793;BME280;55778;54.346;10.210;2023-04-22T12:31:02;100416.78;;;23.88;34.81
68793;BME280;55778;54.346;10.210;2023-04-22T12:33:28;100419.53;;;23.77;34.86
68793;BME280;55778;54.346;10.210;2023-04-22T12:35:53;100409.69;;;24.15;34.59
68793;BME280;55778;54.346;10.210;2023-04-22T12:38:18;100405.78;;;24.28;34.63
68793;BME280;55778;54.346;10.210;2023-04-22T12:40:44;100402.97;;;25.02;33.91
68793;BME280;55778;54.346;10.210;2023-04-22T12:43:09;100394.16;;;24.93;33.70
68793;BME280;55778;54.346;10.210;2023-04-22T12:45:35;100390.06;;;24.84;32.30
68793;BME280;55778;54.346;10.210;2023-04-22T12:48:00;100390.38;;;24.48;32.93
68793;BME280;55778;54.346;10.210;2023-04-22T12:50:26;100385.16;;;24.52;33.80
68793;BME280;55778;54.346;10.210;2023-04-22T12:52:51;100391.09;;;24.55;33.12
68793;BME280;55778;54.346;10.210;2023-04-22T12:55:17;100384.69;;;24.55;33.11
68793;BME280;55778;54.346;10.210;2023-04-22T12:57:44;100399.44;;;23.86;32.32